sensor_id;sensor_type;location;lat;lon;timestamp;temperature;humidity
63445;DHT22;49573;47.682;9.170;2023-04-03T00:01:37;7.20;71.90
63445;DHT22;49573;47.682;9.170;2023-04-03T00:04:24;7.10;72.50
63445;DHT22;49573;47.682;9.170;2023-04-03T00:07:10;7.00;71.90
63445;DHT22;49573;47.682;9.170;2023-04-03T00:09:58;7.00;72.50
63445;DHT22;49573;47.682;9.170;2023-04-03T00:12:44;6.90;72.40
63445;DHT22;49573;47.682;9.170;2023-04-03T00:15:31;6.80;72.10
63445;DHT22;49573;47.682;9.170;2023-04-03T00:18:17;6.80;72.90
63445;DHT22;49573;47.682;9.170;2023-04-03T00:21:04;6.70;72.50
63445;DHT22;49573;47.682;9.170;2023-04-03T00:23:50;6.80;72.50
63445;DHT22;49573;47.682;9.170;2023-04-03T00:26:36;6.70;72.90
63445;DHT22;49573;47.682;9.170;2023-04-03T00:29:23;6.70;72.60
63445;DHT22;49573;47.682;9.170;2023-04-03T00:32:10;6.70;72.70
63445;DHT22;49573;47.682;9.170;2023-04-03T00:34:56;6.70;72.80
63445;DHT22;49573;47.682;9.170;2023-04-03T00:37:43;6.70;73.00
63445;DHT22;49573;47.682;9.170;2023-04-03T00:40:34;6.60;73.10
63445;DHT22;49573;47.682;9.170;2023-04-03T00:43:22;6.50;73.20
63445;DHT22;49573;47.682;9.170;2023-04-03T00:46:08;6.60;73.30
63445;DHT22;49573;47.682;9.170;2023-04-03T00:48:56;6.50;73.20
63445;DHT22;49573;47.682;9.170;2023-04-03T00:51:43;6.50;73.50
63445;DHT22;49573;47.682;9.170;2023-04-03T00:54:29;6.50;73.40
63445;DHT22;49573;47.682;9.170;2023-04-03T01:11:12;6.50;73.70
63445;DHT22;49573;47.682;9.170;2023-04-03T01:13:58;6.30;75.80
63445;DHT22;49573;47.682;9.170;2023-04-03T01:16:52;6.20;75.50
63445;DHT22;49573;47.682;9.170;2023-04-03T01:19:42;6.20;75.50
63445;DHT22;49573;47.682;9.170;2023-04-03T02:15:27;6.20;75.30
63445;DHT22;49573;47.682;9.170;2023-04-03T02:18:13;5.70;70.00
63445;DHT22;49573;47.682;9.170;2023-04-03T02:21:00;5.60;69.80
63445;DHT22;49573;47.682;9.170;2023-04-03T02:23:47;5.50;70.00
63445;DHT22;49573;47.682;9.170;2023-04-03T02:26:33;5.60;70.50
63445;DHT22;49573;47.682;9.170;2023-04-03T02:29:20;5.40;69.20
63445;DHT22;49573;47.682;9.170;2023-04-03T02:32:06;5.40;69.70
63445;DHT22;49573;47.682;9.170;2023-04-03T02:34:52;5.30;69.50
63445;DHT22;49573;47.682;9.170;2023-04-03T02:37:38;5.30;69.60
63445;DHT22;49573;47.682;9.170;2023-04-03T02:40:26;5.20;69.70
63445;DHT22;49573;47.682;9.170;2023-04-03T02:43:12;5.20;69.70
63445;DHT22;49573;47.682;9.170;2023-04-03T02:45:58;5.20;69.40
63445;DHT22;49573;47.682;9.170;2023-04-03T02:48:44;5.10;69.10
63445;DHT22;49573;47.682;9.170;2023-04-03T02:51:30;5.00;69.60
63445;DHT22;49573;47.682;9.170;2023-04-03T02:54:16;5.00;69.70
63445;DHT22;49573;47.682;9.170;2023-04-03T02:57:03;4.90;69.70
63445;DHT22;49573;47.682;9.170;2023-04-03T02:59:50;5.00;69.70
63445;DHT22;49573;47.682;9.170;2023-04-03T03:02:36;5.00;70.10
63445;DHT22;49573;47.682;9.170;2023-04-03T03:05:22;5.00;70.40
63445;DHT22;49573;47.682;9.170;2023-04-03T03:08:08;4.90;69.10
63445;DHT22;49573;47.682;9.170;2023-04-03T03:10:54;4.80;69.00
63445;DHT22;49573;47.682;9.170;2023-04-03T03:13:41;4.90;68.90
63445;DHT22;49573;47.682;9.170;2023-04-03T03:16:27;4.80;68.70
63445;DHT22;49573;47.682;9.170;2023-04-03T03:19:13;4.80;68.20
63445;DHT22;49573;47.682;9.170;2023-04-03T03:21:59;4.80;68.00
63445;DHT22;49573;47.682;9.170;2023-04-03T03:24:45;4.80;68.40
63445;DHT22;49573;47.682;9.170;2023-04-03T03:27:31;4.80;67.40
63445;DHT22;49573;47.682;9.170;2023-04-03T03:30:19;4.90;67.60
63445;DHT22;49573;47.682;9.170;2023-04-03T03:33:05;4.80;67.00
63445;DHT22;49573;47.682;9.170;2023-04-03T03:35:51;4.80;66.60
63445;DHT22;49573;47.682;9.170;2023-04-03T03:38:38;4.80;66.70
63445;DHT22;49573;47.682;9.170;2023-04-03T03:41:24;4.70;66.00
63445;DHT22;49573;47.682;9.170;2023-04-03T03:44:10;4.80;66.90
63445;DHT22;49573;47.682;9.170;2023-04-03T03:46:57;4.80;67.20
63445;DHT22;49573;47.682;9.170;2023-04-03T03:49:43;4.70;67.20
63445;DHT22;49573;47.682;9.170;2023-04-03T03:52:30;4.70;66.30
63445;DHT22;49573;47.682;9.170;2023-04-03T03:55:16;4.70;66.50
63445;DHT22;49573;47.682;9.170;2023-04-03T03:58:03;4.60;65.60
63445;DHT22;49573;47.682;9.170;2023-04-03T04:00:49;4.60;65.40
63445;DHT22;49573;47.682;9.170;2023-04-03T04:03:36;4.60;65.60
63445;DHT22;49573;47.682;9.170;2023-04-03T04:06:23;4.50;64.50
63445;DHT22;49573;47.682;9.170;2023-04-03T04:09:09;4.40;64.50
63445;DHT22;49573;47.682;9.170;2023-04-03T04:11:55;4.40;63.50
63445;DHT22;49573;47.682;9.170;2023-04-03T04:14:41;4.40;63.40
63445;DHT22;49573;47.682;9.170;2023-04-03T04:17:27;4.40;63.20
63445;DHT22;49573;47.682;9.170;2023-04-03T04:20:15;4.40;63.70
63445;DHT22;49573;47.682;9.170;2023-04-03T04:23:01;4.40;63.80
63445;DHT22;49573;47.682;9.170;2023-04-03T04:25:47;4.40;63.80
63445;DHT22;49573;47.682;9.170;2023-04-03T04:28:34;4.30;63.30
63445;DHT22;49573;47.682;9.170;2023-04-03T04:31:20;4.30;62.80
63445;DHT22;49573;47.682;9.170;2023-04-03T04:34:06;4.20;62.30
63445;DHT22;49573;47.682;9.170;2023-04-03T04:36:53;4.20;63.10
63445;DHT22;49573;47.682;9.170;2023-04-03T04:39:40;4.20;62.50
63445;DHT22;49573;47.682;9.170;2023-04-03T04:42:26;4.20;62.70
63445;DHT22;49573;47.682;9.170;2023-04-03T04:45:12;4.10;63.00
63445;DHT22;49573;47.682;9.170;2023-04-03T04:47:58;4.10;62.80
63445;DHT22;49573;47.682;9.170;2023-04-03T04:50:44;4.20;63.50
63445;DHT22;49573;47.682;9.170;2023-04-03T04:53:31;4.20;63.00
63445;DHT22;49573;47.682;9.170;2023-04-03T04:56:17;4.20;63.50
63445;DHT22;49573;47.682;9.170;2023-04-03T04:59:03;4.20;63.90
63445;DHT22;49573;47.682;9.170;2023-04-03T05:01:49;4.20;63.50
63445;DHT22;49573;47.682;9.170;2023-04-03T05:04:35;4.20;64.10
63445;DHT22;49573;47.682;9.170;2023-04-03T05:07:22;4.20;63.00
63445;DHT22;49573;47.682;9.170;2023-04-03T05:10:10;4.20;63.40
63445;DHT22;49573;47.682;9.170;2023-04-03T05:12:56;4.20;62.90
63445;DHT22;49573;47.682;9.170;2023-04-03T05:15:42;4.10;63.10
63445;DHT22;49573;47.682;9.170;2023-04-03T05:18:28;4.20;62.80
63445;DHT22;49573;47.682;9.170;2023-04-03T05:21:14;4.20;62.80
63445;DHT22;49573;47.682;9.170;2023-04-03T05:24:01;4.20;63.10
63445;DHT22;49573;47.682;9.170;2023-04-03T05:26:49;4.20;62.50
63445;DHT22;49573;47.682;9.170;2023-04-03T05:29:35;4.20;62.60
63445;DHT22;49573;47.682;9.170;2023-04-03T05:32:22;4.20;62.30
63445;DHT22;49573;47.682;9.170;2023-04-03T05:35:08;4.20;62.10
63445;DHT22;49573;47.682;9.170;2023-04-03T05:37:55;4.20;62.50
63445;DHT22;49573;47.682;9.170;2023-04-03T05:40:41;4.20;62.50
63445;DHT22;49573;47.682;9.170;2023-04-03T05:43:28;4.20;62.20
63445;DHT22;49573;47.682;9.170;2023-04-03T05:46:17;4.20;62.40
63445;DHT22;49573;47.682;9.170;2023-04-03T05:49:04;4.20;62.30
63445;DHT22;49573;47.682;9.170;2023-04-03T05:51:50;4.20;62.40
63445;DHT22;49573;47.682;9.170;2023-04-03T05:54:37;4.30;63.50
63445;DHT22;49573;47.682;9.170;2023-04-03T05:57:23;4.30;62.20
63445;DHT22;49573;47.682;9.170;2023-04-03T06:00:13;4.30;62.50
63445;DHT22;49573;47.682;9.170;2023-04-03T06:03:01;4.40;62.20
63445;DHT22;49573;47.682;9.170;2023-04-03T06:05:47;4.40;63.30
63445;DHT22;49573;47.682;9.170;2023-04-03T06:08:33;4.30;61.60
63445;DHT22;49573;47.682;9.170;2023-04-03T06:11:20;4.40;63.10
63445;DHT22;49573;47.682;9.170;2023-04-03T06:14:08;4.40;61.90
63445;DHT22;49573;47.682;9.170;2023-04-03T06:16:55;4.30;61.90
63445;DHT22;49573;47.682;9.170;2023-04-03T06:19:42;4.50;62.70
63445;DHT22;49573;47.682;9.170;2023-04-03T06:22:28;4.50;62.30
63445;DHT22;49573;47.682;9.170;2023-04-03T06:25:15;4.60;63.50
63445;DHT22;49573;47.682;9.170;2023-04-03T06:28:03;4.60;62.60
63445;DHT22;49573;47.682;9.170;2023-04-03T06:30:49;4.60;62.10
63445;DHT22;49573;47.682;9.170;2023-04-03T06:33:36;4.70;63.10
63445;DHT22;49573;47.682;9.170;2023-04-03T06:36:22;4.70;62.80
63445;DHT22;49573;47.682;9.170;2023-04-03T06:39:09;4.90;62.90
63445;DHT22;49573;47.682;9.170;2023-04-03T06:41:58;4.70;63.10
63445;DHT22;49573;47.682;9.170;2023-04-03T06:44:44;4.80;62.40
63445;DHT22;49573;47.682;9.170;2023-04-03T06:47:30;4.80;62.00
63445;DHT22;49573;47.682;9.170;2023-04-03T06:50:18;4.90;62.20
63445;DHT22;49573;47.682;9.170;2023-04-03T06:53:04;4.90;62.20
63445;DHT22;49573;47.682;9.170;2023-04-03T06:55:51;5.00;63.00
63445;DHT22;49573;47.682;9.170;2023-04-03T06:58:37;5.10;62.10
63445;DHT22;49573;47.682;9.170;2023-04-03T07:01:24;5.10;63.10
63445;DHT22;49573;47.682;9.170;2023-04-03T07:04:11;5.10;62.40
63445;DHT22;49573;47.682;9.170;2023-04-03T07:06:59;5.20;63.40
63445;DHT22;49573;47.682;9.170;2023-04-03T07:09:46;5.20;62.40
63445;DHT22;49573;47.682;9.170;2023-04-03T07:12:33;5.30;62.10
63445;DHT22;49573;47.682;9.170;2023-04-03T07:15:19;5.40;61.70
63445;DHT22;49573;47.682;9.170;2023-04-03T07:18:05;5.30;61.20
63445;DHT22;49573;47.682;9.170;2023-04-03T07:20:52;5.30;61.00
63445;DHT22;49573;47.682;9.170;2023-04-03T07:23:39;5.30;61.60
63445;DHT22;49573;47.682;9.170;2023-04-03T07:26:25;5.30;62.00
63445;DHT22;49573;47.682;9.170;2023-04-03T07:29:11;5.40;61.50
63445;DHT22;49573;47.682;9.170;2023-04-03T07:31:58;5.30;61.20
63445;DHT22;49573;47.682;9.170;2023-04-03T07:34:44;5.40;61.70
63445;DHT22;49573;47.682;9.170;2023-04-03T07:37:30;5.30;61.80
63445;DHT22;49573;47.682;9.170;2023-04-03T07:40:18;5.40;62.50
63445;DHT22;49573;47.682;9.170;2023-04-03T07:43:04;5.60;62.30
63445;DHT22;49573;47.682;9.170;2023-04-03T07:45:51;5.50;61.60
63445;DHT22;49573;47.682;9.170;2023-04-03T07:48:37;5.70;62.30
63445;DHT22;49573;47.682;9.170;2023-04-03T07:51:23;5.50;61.70
63445;DHT22;49573;47.682;9.170;2023-04-03T07:54:10;5.70;62.10
63445;DHT22;49573;47.682;9.170;2023-04-03T07:56:57;5.70;61.90
63445;DHT22;49573;47.682;9.170;2023-04-03T07:59:43;5.70;62.10
63445;DHT22;49573;47.682;9.170;2023-04-03T08:02:29;5.70;61.90
63445;DHT22;49573;47.682;9.170;2023-04-03T08:05:18;5.80;62.20
63445;DHT22;49573;47.682;9.170;2023-04-03T08:08:04;5.90;62.20
63445;DHT22;49573;47.682;9.170;2023-04-03T08:10:51;6.00;61.90
63445;DHT22;49573;47.682;9.170;2023-04-03T08:13:38;6.00;61.60
63445;DHT22;49573;47.682;9.170;2023-04-03T08:16:25;6.10;61.80
63445;DHT22;49573;47.682;9.170;2023-04-03T08:19:14;6.20;61.90
63445;DHT22;49573;47.682;9.170;2023-04-03T08:22:02;6.30;62.30
63445;DHT22;49573;47.682;9.170;2023-04-03T08:24:49;6.50;62.10
63445;DHT22;49573;47.682;9.170;2023-04-03T08:27:35;6.60;62.10
63445;DHT22;49573;47.682;9.170;2023-04-03T08:30:22;6.70;61.70
63445;DHT22;49573;47.682;9.170;2023-04-03T08:33:09;6.70;61.40
63445;DHT22;49573;47.682;9.170;2023-04-03T08:35:55;6.70;61.90
63445;DHT22;49573;47.682;9.170;2023-04-03T08:38:41;6.80;61.80
63445;DHT22;49573;47.682;9.170;2023-04-03T08:41:32;6.90;61.50
63445;DHT22;49573;47.682;9.170;2023-04-03T08:44:25;6.80;60.60
63445;DHT22;49573;47.682;9.170;2023-04-03T08:47:20;6.80;61.10
63445;DHT22;49573;47.682;9.170;2023-04-03T08:50:13;6.80;61.50
63445;DHT22;49573;47.682;9.170;2023-04-03T08:53:02;6.90;62.10
63445;DHT22;49573;47.682;9.170;2023-04-03T08:55:51;7.00;61.60
63445;DHT22;49573;47.682;9.170;2023-04-03T08:58:44;7.00;61.80
63445;DHT22;49573;47.682;9.170;2023-04-03T09:01:35;6.90;60.90
63445;DHT22;49573;47.682;9.170;2023-04-03T09:04:26;7.00;61.10
63445;DHT22;49573;47.682;9.170;2023-04-03T09:07:17;6.90;61.20
63445;DHT22;49573;47.682;9.170;2023-04-03T09:10:08;7.00;61.50
63445;DHT22;49573;47.682;9.170;2023-04-03T09:13:00;7.10;61.30
63445;DHT22;49573;47.682;9.170;2023-04-03T09:15:47;7.00;61.10
63445;DHT22;49573;47.682;9.170;2023-04-03T09:18:39;7.10;61.40
63445;DHT22;49573;47.682;9.170;2023-04-03T09:21:34;7.20;61.00
63445;DHT22;49573;47.682;9.170;2023-04-03T09:24:22;7.20;61.30
63445;DHT22;49573;47.682;9.170;2023-04-03T09:27:11;7.20;61.10
63445;DHT22;49573;47.682;9.170;2023-04-03T09:29:58;7.30;60.50
63445;DHT22;49573;47.682;9.170;2023-04-03T09:32:45;7.20;60.70
63445;DHT22;49573;47.682;9.170;2023-04-03T09:35:34;7.40;61.20
63445;DHT22;49573;47.682;9.170;2023-04-03T09:38:22;7.40;60.60
63445;DHT22;49573;47.682;9.170;2023-04-03T09:41:15;7.50;60.00
63445;DHT22;49573;47.682;9.170;2023-04-03T09:44:01;7.60;59.90
63445;DHT22;49573;47.682;9.170;2023-04-03T09:46:47;7.70;60.00
63445;DHT22;49573;47.682;9.170;2023-04-03T09:49:34;7.80;59.60
63445;DHT22;49573;47.682;9.170;2023-04-03T09:52:23;7.80;59.10
63445;DHT22;49573;47.682;9.170;2023-04-03T09:55:16;7.80;59.10
63445;DHT22;49573;47.682;9.170;2023-04-03T09:58:04;8.00;59.30
63445;DHT22;49573;47.682;9.170;2023-04-03T10:00:55;8.00;58.50
63445;DHT22;49573;47.682;9.170;2023-04-03T10:03:41;7.90;58.20
63445;DHT22;49573;47.682;9.170;2023-04-03T10:06:34;7.90;57.90
63445;DHT22;49573;47.682;9.170;2023-04-03T10:09:23;7.90;58.10
63445;DHT22;49573;47.682;9.170;2023-04-03T10:12:12;8.00;58.50
63445;DHT22;49573;47.682;9.170;2023-04-03T10:15:00;8.00;57.70
63445;DHT22;49573;47.682;9.170;2023-04-03T10:17:54;8.10;58.30
63445;DHT22;49573;47.682;9.170;2023-04-03T10:20:44;8.20;58.20
63445;DHT22;49573;47.682;9.170;2023-04-03T10:23:39;8.30;58.40
63445;DHT22;49573;47.682;9.170;2023-04-03T10:26:35;8.30;57.10
63445;DHT22;49573;47.682;9.170;2023-04-03T10:29:36;8.30;57.60
63445;DHT22;49573;47.682;9.170;2023-04-03T10:32:47;8.30;58.10
63445;DHT22;49573;47.682;9.170;2023-04-03T10:35:44;8.40;56.60
63445;DHT22;49573;47.682;9.170;2023-04-03T10:38:42;8.50;57.20
63445;DHT22;49573;47.682;9.170;2023-04-03T10:41:38;8.70;57.10
63445;DHT22;49573;47.682;9.170;2023-04-03T10:44:35;8.90;56.50
63445;DHT22;49573;47.682;9.170;2023-04-03T10:47:27;8.90;56.20
63445;DHT22;49573;47.682;9.170;2023-04-03T10:50:35;9.00;56.30
63445;DHT22;49573;47.682;9.170;2023-04-03T10:53:29;9.20;55.80
63445;DHT22;49573;47.682;9.170;2023-04-03T10:56:22;9.00;55.30
63445;DHT22;49573;47.682;9.170;2023-04-03T10:59:18;9.00;54.40
63445;DHT22;49573;47.682;9.170;2023-04-03T11:02:17;9.10;54.80
63445;DHT22;49573;47.682;9.170;2023-04-03T11:05:06;9.10;55.10
63445;DHT22;49573;47.682;9.170;2023-04-03T11:07:57;9.30;55.20
63445;DHT22;49573;47.682;9.170;2023-04-03T11:10:47;9.20;54.60
63445;DHT22;49573;47.682;9.170;2023-04-03T11:13:37;9.20;54.80
63445;DHT22;49573;47.682;9.170;2023-04-03T11:16:30;9.20;54.30
63445;DHT22;49573;47.682;9.170;2023-04-03T11:19:21;9.30;54.40
63445;DHT22;49573;47.682;9.170;2023-04-03T11:22:16;9.30;54.20
63445;DHT22;49573;47.682;9.170;2023-04-03T11:25:15;9.20;54.30
63445;DHT22;49573;47.682;9.170;2023-04-03T11:28:09;9.00;54.70
63445;DHT22;49573;47.682;9.170;2023-04-03T11:31:05;9.10;55.10
63445;DHT22;49573;47.682;9.170;2023-04-03T11:34:02;9.10;54.60
63445;DHT22;49573;47.682;9.170;2023-04-03T11:36:54;9.10;54.50
63445;DHT22;49573;47.682;9.170;2023-04-03T11:39:49;9.00;54.10
63445;DHT22;49573;47.682;9.170;2023-04-03T11:42:38;8.90;53.90
63445;DHT22;49573;47.682;9.170;2023-04-03T11:45:35;8.80;54.00
63445;DHT22;49573;47.682;9.170;2023-04-03T11:48:47;8.80;54.30
63445;DHT22;49573;47.682;9.170;2023-04-03T11:51:41;8.70;54.60
63445;DHT22;49573;47.682;9.170;2023-04-03T11:54:47;8.80;54.30
63445;DHT22;49573;47.682;9.170;2023-04-03T11:57:45;8.70;54.10
63445;DHT22;49573;47.682;9.170;2023-04-03T12:00:48;8.80;53.50
63445;DHT22;49573;47.682;9.170;2023-04-03T12:07:20;8.80;53.50
63445;DHT22;49573;47.682;9.170;2023-04-03T12:10:18;8.80;52.20
63445;DHT22;49573;47.682;9.170;2023-04-03T12:13:12;8.80;52.60
63445;DHT22;49573;47.682;9.170;2023-04-03T12:15:59;8.90;52.80
63445;DHT22;49573;47.682;9.170;2023-04-03T12:18:56;8.90;53.00
63445;DHT22;49573;47.682;9.170;2023-04-03T12:22:11;8.80;53.50
63445;DHT22;49573;47.682;9.170;2023-04-03T12:24:58;8.80;53.20
63445;DHT22;49573;47.682;9.170;2023-04-03T12:28:06;8.80;53.30
63445;DHT22;49573;47.682;9.170;2023-04-03T12:30:56;8.80;53.00
63445;DHT22;49573;47.682;9.170;2023-04-03T12:33:58;8.80;53.50
63445;DHT22;49573;47.682;9.170;2023-04-03T12:36:55;8.70;53.50
63445;DHT22;49573;47.682;9.170;2023-04-03T12:39:49;8.80;53.20
63445;DHT22;49573;47.682;9.170;2023-04-03T12:43:09;8.80;53.10
63445;DHT22;49573;47.682;9.170;2023-04-03T12:46:04;8.90;52.30
63445;DHT22;49573;47.682;9.170;2023-04-03T12:48:59;8.90;51.60
63445;DHT22;49573;47.682;9.170;2023-04-03T12:51:45;8.90;51.40
63445;DHT22;49573;47.682;9.170;2023-04-03T12:54:36;9.00;51.80
63445;DHT22;49573;47.682;9.170;2023-04-03T12:57:25;8.90;51.10
63445;DHT22;49573;47.682;9.170;2023-04-03T13:00:25;8.80;50.10
63445;DHT22;49573;47.682;9.170;2023-04-03T13:03:23;8.80;50.60
63445;DHT22;49573;47.682;9.170;2023-04-03T13:06:10;9.00;50.80
63445;DHT22;49573;47.682;9.170;2023-04-03T13:09:01;8.90;50.50
63445;DHT22;49573;47.682;9.170;2023-04-03T13:11:48;9.20;51.30
63445;DHT22;49573;47.682;9.170;2023-04-03T13:14:34;9.20;50.90
63445;DHT22;49573;47.682;9.170;2023-04-03T13:17:22;9.20;49.90
63445;DHT22;49573;47.682;9.170;2023-04-03T13:20:13;9.20;49.90
63445;DHT22;49573;47.682;9.170;2023-04-03T13:23:02;9.20;50.00
63445;DHT22;49573;47.682;9.170;2023-04-03T13:25:50;9.30;50.10
63445;DHT22;49573;47.682;9.170;2023-04-03T13:28:38;9.30;49.70
63445;DHT22;49573;47.682;9.170;2023-04-03T13:31:27;9.30;48.50
63445;DHT22;49573;47.682;9.170;2023-04-03T13:34:18;9.30;49.20
63445;DHT22;49573;47.682;9.170;2023-04-03T13:37:05;9.30;48.80
63445;DHT22;49573;47.682;9.170;2023-04-03T13:40:03;9.20;48.30
63445;DHT22;49573;47.682;9.170;2023-04-03T13:43:00;9.30;48.20
63445;DHT22;49573;47.682;9.170;2023-04-03T13:46:03;9.30;49.40
63445;DHT22;49573;47.682;9.170;2023-04-03T13:48:52;9.30;48.30
63445;DHT22;49573;47.682;9.170;2023-04-03T13:51:40;9.30;48.90
63445;DHT22;49573;47.682;9.170;2023-04-03T13:54:31;9.30;48.20
63445;DHT22;49573;47.682;9.170;2023-04-03T13:57:18;9.40;48.20
63445;DHT22;49573;47.682;9.170;2023-04-03T14:00:21;9.30;47.90
63445;DHT22;49573;47.682;9.170;2023-04-03T14:03:16;9.30;49.90
63445;DHT22;49573;47.682;9.170;2023-04-03T14:06:05;9.40;50.30
63445;DHT22;49573;47.682;9.170;2023-04-03T14:08:53;9.20;49.60
63445;DHT22;49573;47.682;9.170;2023-04-03T14:11:40;9.30;49.70
63445;DHT22;49573;47.682;9.170;2023-04-03T14:14:30;9.40;49.90
63445;DHT22;49573;47.682;9.170;2023-04-03T14:17:18;9.40;50.10
63445;DHT22;49573;47.682;9.170;2023-04-03T14:20:06;9.30;49.70
63445;DHT22;49573;47.682;9.170;2023-04-03T14:22:53;9.20;50.40
63445;DHT22;49573;47.682;9.170;2023-04-03T14:25:41;9.30;50.40
63445;DHT22;49573;47.682;9.170;2023-04-03T14:28:27;9.20;49.70
63445;DHT22;49573;47.682;9.170;2023-04-03T14:31:15;9.10;50.10
63445;DHT22;49573;47.682;9.170;2023-04-03T14:34:01;9.00;49.80
63445;DHT22;49573;47.682;9.170;2023-04-03T14:36:47;8.90;49.70
63445;DHT22;49573;47.682;9.170;2023-04-03T14:39:34;8.90;49.80
63445;DHT22;49573;47.682;9.170;2023-04-03T14:42:23;8.90;50.10
63445;DHT22;49573;47.682;9.170;2023-04-03T14:45:11;8.80;50.00
63445;DHT22;49573;47.682;9.170;2023-04-03T14:47:58;8.80;50.30
63445;DHT22;49573;47.682;9.170;2023-04-03T14:50:45;8.70;50.10
63445;DHT22;49573;47.682;9.170;2023-04-03T14:53:31;8.60;49.60
63445;DHT22;49573;47.682;9.170;2023-04-03T14:56:21;8.70;50.40
63445;DHT22;49573;47.682;9.170;2023-04-03T14:59:11;8.70;50.50
63445;DHT22;49573;47.682;9.170;2023-04-03T15:01:58;8.80;50.60
63445;DHT22;49573;47.682;9.170;2023-04-03T15:04:44;8.80;49.80
63445;DHT22;49573;47.682;9.170;2023-04-03T15:07:32;8.80;50.60
63445;DHT22;49573;47.682;9.170;2023-04-03T15:10:20;8.80;49.70
63445;DHT22;49573;47.682;9.170;2023-04-03T15:13:09;8.80;50.00
63445;DHT22;49573;47.682;9.170;2023-04-03T15:15:58;8.70;50.10
63445;DHT22;49573;47.682;9.170;2023-04-03T15:18:45;8.70;49.90
63445;DHT22;49573;47.682;9.170;2023-04-03T15:21:31;8.60;50.00
63445;DHT22;49573;47.682;9.170;2023-04-03T15:24:17;8.50;49.80
63445;DHT22;49573;47.682;9.170;2023-04-03T15:27:03;8.50;49.20
63445;DHT22;49573;47.682;9.170;2023-04-03T15:29:49;8.60;50.10
63445;DHT22;49573;47.682;9.170;2023-04-03T15:32:37;8.60;49.90
63445;DHT22;49573;47.682;9.170;2023-04-03T15:35:23;8.60;50.10
63445;DHT22;49573;47.682;9.170;2023-04-03T15:38:09;8.50;50.80
63445;DHT22;49573;47.682;9.170;2023-04-03T15:40:56;8.50;50.70
63445;DHT22;49573;47.682;9.170;2023-04-03T15:43:42;8.60;51.20
63445;DHT22;49573;47.682;9.170;2023-04-03T15:46:28;8.40;51.10
63445;DHT22;49573;47.682;9.170;2023-04-03T15:49:16;8.40;51.70
63445;DHT22;49573;47.682;9.170;2023-04-03T15:52:02;8.30;51.50
63445;DHT22;49573;47.682;9.170;2023-04-03T15:54:48;8.30;51.50
63445;DHT22;49573;47.682;9.170;2023-04-03T15:57:35;8.30;51.50
63445;DHT22;49573;47.682;9.170;2023-04-03T16:00:22;8.30;52.20
63445;DHT22;49573;47.682;9.170;2023-04-03T16:03:10;8.20;51.60
63445;DHT22;49573;47.682;9.170;2023-04-03T16:05:58;8.20;51.70
63445;DHT22;49573;47.682;9.170;2023-04-03T16:08:44;8.20;51.70
63445;DHT22;49573;47.682;9.170;2023-04-03T16:11:31;8.10;51.30
63445;DHT22;49573;47.682;9.170;2023-04-03T16:14:17;8.00;52.00
63445;DHT22;49573;47.682;9.170;2023-04-03T16:17:03;8.00;52.00
63445;DHT22;49573;47.682;9.170;2023-04-03T16:19:49;8.00;52.30
63445;DHT22;49573;47.682;9.170;2023-04-03T16:22:37;8.00;52.20
63445;DHT22;49573;47.682;9.170;2023-04-03T16:25:23;8.00;52.40
63445;DHT22;49573;47.682;9.170;2023-04-03T16:28:09;7.80;53.30
63445;DHT22;49573;47.682;9.170;2023-04-03T16:30:55;7.80;52.80
63445;DHT22;49573;47.682;9.170;2023-04-03T16:33:41;7.70;52.80
63445;DHT22;49573;47.682;9.170;2023-04-03T16:36:27;7.60;52.40
63445;DHT22;49573;47.682;9.170;2023-04-03T16:39:14;7.60;53.30
63445;DHT22;49573;47.682;9.170;2023-04-03T16:42:01;7.60;52.60
63445;DHT22;49573;47.682;9.170;2023-04-03T16:44:47;7.60;52.40
63445;DHT22;49573;47.682;9.170;2023-04-03T16:47:33;7.50;52.90
63445;DHT22;49573;47.682;9.170;2023-04-03T16:50:20;7.30;52.60
63445;DHT22;49573;47.682;9.170;2023-04-03T16:53:06;7.30;53.30
63445;DHT22;49573;47.682;9.170;2023-04-03T16:55:57;7.30;53.50
63445;DHT22;49573;47.682;9.170;2023-04-03T16:58:43;7.30;53.50
63445;DHT22;49573;47.682;9.170;2023-04-03T17:01:29;7.20;53.90
63445;DHT22;49573;47.682;9.170;2023-04-03T17:04:15;7.20;53.80
63445;DHT22;49573;47.682;9.170;2023-04-03T17:07:02;7.10;54.40
63445;DHT22;49573;47.682;9.170;2023-04-03T17:09:52;7.10;54.60
63445;DHT22;49573;47.682;9.170;2023-04-03T17:12:40;7.10;54.20
63445;DHT22;49573;47.682;9.170;2023-04-03T17:15:26;7.10;54.50
63445;DHT22;49573;47.682;9.170;2023-04-03T17:18:12;7.00;54.80
63445;DHT22;49573;47.682;9.170;2023-04-03T17:20:59;7.00;54.70
63445;DHT22;49573;47.682;9.170;2023-04-03T17:23:46;6.90;54.40
63445;DHT22;49573;47.682;9.170;2023-04-03T17:26:32;6.90;55.30
63445;DHT22;49573;47.682;9.170;2023-04-03T17:29:20;6.80;55.00
63445;DHT22;49573;47.682;9.170;2023-04-03T17:32:06;6.80;54.80
63445;DHT22;49573;47.682;9.170;2023-04-03T17:34:52;6.80;55.10
63445;DHT22;49573;47.682;9.170;2023-04-03T17:37:38;6.80;55.40
63445;DHT22;49573;47.682;9.170;2023-04-03T17:40:24;6.70;55.00
63445;DHT22;49573;47.682;9.170;2023-04-03T17:43:10;6.70;55.30
63445;DHT22;49573;47.682;9.170;2023-04-03T17:46:01;6.70;55.70
63445;DHT22;49573;47.682;9.170;2023-04-03T17:48:50;6.60;55.90
63445;DHT22;49573;47.682;9.170;2023-04-03T17:51:36;6.60;55.80
63445;DHT22;49573;47.682;9.170;2023-04-03T17:54:23;6.50;56.30
63445;DHT22;49573;47.682;9.170;2023-04-03T17:57:09;6.50;56.30
63445;DHT22;49573;47.682;9.170;2023-04-03T17:59:55;6.40;56.00
63445;DHT22;49573;47.682;9.170;2023-04-03T18:02:42;6.40;56.30
63445;DHT22;49573;47.682;9.170;2023-04-03T18:05:28;6.40;55.90
63445;DHT22;49573;47.682;9.170;2023-04-03T18:08:14;6.30;56.00
63445;DHT22;49573;47.682;9.170;2023-04-03T18:11:02;6.30;55.70
63445;DHT22;49573;47.682;9.170;2023-04-03T18:13:48;6.20;55.30
63445;DHT22;49573;47.682;9.170;2023-04-03T18:16:34;6.20;55.70
63445;DHT22;49573;47.682;9.170;2023-04-03T18:19:22;6.20;55.70
63445;DHT22;49573;47.682;9.170;2023-04-03T18:22:12;6.10;55.10
63445;DHT22;49573;47.682;9.170;2023-04-03T18:24:59;6.10;54.80
63445;DHT22;49573;47.682;9.170;2023-04-03T18:27:45;6.00;54.90
63445;DHT22;49573;47.682;9.170;2023-04-03T18:30:33;6.00;54.70
63445;DHT22;49573;47.682;9.170;2023-04-03T18:33:19;5.90;54.50
63445;DHT22;49573;47.682;9.170;2023-04-03T18:36:07;5.90;54.30
63445;DHT22;49573;47.682;9.170;2023-04-03T18:38:54;5.80;54.50
63445;DHT22;49573;47.682;9.170;2023-04-03T18:41:41;5.70;54.30
63445;DHT22;49573;47.682;9.170;2023-04-03T18:44:28;5.70;54.50
63445;DHT22;49573;47.682;9.170;2023-04-03T18:47:16;5.70;54.60
63445;DHT22;49573;47.682;9.170;2023-04-03T18:50:03;5.70;54.50
63445;DHT22;49573;47.682;9.170;2023-04-03T18:52:50;5.60;54.70
63445;DHT22;49573;47.682;9.170;2023-04-03T18:55:37;5.60;55.00
63445;DHT22;49573;47.682;9.170;2023-04-03T18:58:23;5.60;55.10
63445;DHT22;49573;47.682;9.170;2023-04-03T19:01:09;5.60;55.30
63445;DHT22;49573;47.682;9.170;2023-04-03T19:03:55;5.50;55.10
63445;DHT22;49573;47.682;9.170;2023-04-03T19:06:41;5.50;55.00
63445;DHT22;49573;47.682;9.170;2023-04-03T19:09:29;5.50;54.80
63445;DHT22;49573;47.682;9.170;2023-04-03T19:12:15;5.40;54.80